Time;durP1;ratioP1;P1;durP2;ratioP2;P2;SDS_P1;SDS_P2;PMS_P1;PMS_P2;Temp;Humidity;BMP_temperature;BMP_pressure;BME280_temperature;BME280_humidity;BME280_pressure;Samples;Min_cycle;Max_cycle;Signal;HPM_P1;HPM_P2
2022/11/05 00:09:30;;;;;;;;;;;;;;;-144.99;100.00;52468.47;5009271;28;19950;-67
2022/11/05 00:17:26;;;;;;;;;;;;;;;-144.99;100.00;52480.72;4995208;28;19970;-65
2022/11/05 00:19:53;;;;;;;;;;;;;;;-144.99;100.00;52446.06;5000851;28;19934;-64
2022/11/05 00:25:18;;;;;;;;;;;;;;;-144.99;100.00;52480.72;4998624;28;20453;-62
2022/11/05 00:27:49;;;;;;;;;;;;;;;-144.99;100.00;52462.34;5002710;28;19995;-61
2022/11/05 00:30:18;;;;;;;;;;;;;;;-144.99;100.00;52431.78;5015934;28;19963;-62
2022/11/05 00:32:45;;;;;;;;;;;;;;;-144.99;100.00;52423.63;5011581;28;20058;-61
2022/11/05 00:35:12;;;;;;;;;;;;;;;-144.99;100.00;52431.78;4664194;28;9999624;-61
2022/11/05 00:37:38;;;;;;;;;;;;;;;-144.99;100.00;52456.25;5004771;28;20404;-60
2022/11/05 00:40:05;;;;;;;;;;;;;;;-144.99;100.00;52460.31;4998980;28;20385;-62
2022/11/05 00:45:17;;;;;;;;;;;;;;;-144.99;100.00;52444.03;5007725;28;19981;-61
2022/11/05 00:50:28;;;;;;;;;;;;;;;-144.99;100.00;52462.34;5004986;28;20398;-61
2022/11/05 00:52:55;;;;;;;;;;;;;;;-144.99;100.00;52472.56;5002580;28;20337;-60
2022/11/05 00:55:22;;;;;;;;;;;;;;;-144.99;100.00;52456.25;5006102;28;19937;-66
2022/11/05 00:57:48;;;;;;;;;;;;;;;-144.99;100.00;52431.78;5010909;28;20027;-65
2022/11/05 01:00:15;;;;;;;;;;;;;;;-144.99;100.00;52448.09;5012015;28;20494;-66
2022/11/05 01:02:43;;;;;;;;;;;;;;;-144.99;100.00;52448.09;5006409;28;20590;-66
2022/11/05 01:05:09;;;;;;;;;;;;;;;-144.99;100.00;52427.72;5015165;28;19967;-66
2022/11/05 01:07:36;;;;;;;;;;;;;;;-144.99;100.00;52456.25;5008725;28;20330;-66
2022/11/05 01:10:02;;;;;;;;;;;;;;;-144.99;100.00;52431.78;4995983;28;20007;-67
2022/11/05 01:12:30;;;;;;;;;;;;;;;-144.99;100.00;52458.28;5002681;28;19983;-66
2022/11/05 01:14:56;;;;;;;;;;;;;;;-144.99;100.00;52456.25;5009365;28;19947;-65
2022/11/05 01:17:23;;;;;;;;;;;;;;;-144.99;100.00;52439.94;5008907;28;20009;-66
2022/11/05 01:19:51;;;;;;;;;;;;;;;-144.99;100.00;52482.75;5003095;28;20102;-66
2022/11/05 01:22:17;;;;;;;;;;;;;;;-144.99;100.00;52468.47;5008091;28;20393;-66
2022/11/05 01:24:44;;;;;;;;;;;;;;;-144.99;100.00;52444.03;5006372;28;20249;-62
2022/11/05 01:27:10;;;;;;;;;;;;;;;-144.99;100.00;52501.09;5009607;28;19958;-61
2022/11/05 01:29:37;;;;;;;;;;;;;;;-144.99;100.00;52452.16;5013753;28;20108;-62
2022/11/05 01:32:03;;;;;;;;;;;;;;;-144.99;100.00;52439.94;5016110;28;19992;-62
2022/11/05 01:34:30;;;;;;;;;;;;;;;-144.99;100.00;52456.25;5019875;28;20000;-62
2022/11/05 01:36:58;;;;;;;;;;;;;;;-144.99;100.00;52501.09;5012014;28;20411;-67
2022/11/05 01:39:24;;;;;;;;;;;;;;;-144.99;100.00;52470.50;5009568;28;19947;-65
2022/11/05 01:41:50;;;;;;;;;;;;;;;-144.99;100.00;52419.56;5013892;28;20008;-64
2022/11/05 01:44:35;;;;;;;;;;;;;;;-144.99;100.00;52439.94;5009268;28;19957;-65
2022/11/05 01:47:02;;;;;;;;;;;;;;;-144.99;100.00;52431.78;5008537;28;19946;-67
2022/11/05 01:49:31;;;;;;;;;;;;;;;-144.99;100.00;52468.47;5007623;28;19983;-67
2022/11/05 01:52:01;;;;;;;;;;;;;;;-144.99;100.00;52476.63;5007983;28;20436;-68
2022/11/05 01:54:29;;;;;;;;;;;;;;;-144.99;100.00;52444.03;5006964;28;20311;-69
2022/11/05 01:56:58;;;;;;;;;;;;;;;-144.99;100.00;52492.94;5005415;28;19977;-71
2022/11/05 01:59:26;;;;;;;;;;;;;;;-144.99;100.00;52497.00;5010048;28;20547;-69
2022/11/05 02:01:53;;;;;;;;;;;;;;;-144.99;100.00;52529.63;5009994;28;20452;-70
2022/11/05 02:04:26;;;;;;;;;;;;;;;-144.99;100.00;52482.75;5012162;28;20449;-70
2022/11/05 02:06:52;;;;;;;;;;;;;;;-144.99;100.00;52476.63;5011831;28;20488;-69
2022/11/05 02:09:21;;;;;;;;;;;;;;;-144.99;100.00;52464.41;5010610;28;19982;-70
2022/11/05 02:11:48;;;;;;;;;;;;;;;-144.99;100.00;52497.00;5009232;28;20489;-71
2022/11/05 02:14:14;;;;;;;;;;;;;;;-144.99;100.00;52448.09;5010868;28;19956;-71
2022/11/05 02:16:44;;;;;;;;;;;;;;;-144.99;100.00;52492.94;5012445;28;20042;-70
2022/11/05 02:19:25;;;;;;;;;;;;;;;-144.99;100.00;52431.78;5008317;28;20000;-70
2022/11/05 02:22:21;;;;;;;;;;;;;;;-144.99;100.00;52484.78;5005745;28;20315;-70
2022/11/05 02:25:02;;;;;;;;;;;;;;;-144.99;100.00;52431.78;5006362;28;19995;-70
2022/11/05 02:27:42;;;;;;;;;;;;;;;-144.99;100.00;52448.09;5000069;28;19980;-70
2022/11/05 02:33:07;;;;;;;;;;;;;;;-144.99;100.00;52450.13;5128455;27;20090;-72
2022/11/05 02:35:44;;;;;;;;;;;;;;;-144.99;100.00;52452.16;5110137;28;19924;-61
2022/11/05 02:38:14;;;;;;;;;;;;;;;-144.99;100.00;52492.94;5097015;28;20272;-62
2022/11/05 02:40:46;;;;;;;;;;;;;;;-144.99;100.00;52466.44;5103937;28;20038;-62
2022/11/05 02:43:16;;;;;;;;;;;;;;;-144.99;100.00;52474.59;5098947;28;20036;-62
2022/11/05 02:45:46;;;;;;;;;;;;;;;-144.99;100.00;52421.59;5098474;28;19990;-62
2022/11/05 02:48:21;;;;;;;;;;;;;;;-144.99;100.00;52486.81;5103236;28;19942;-63
2022/11/05 02:50:52;;;;;;;;;;;;;;;-144.99;100.00;52476.63;5097234;28;20046;-63
2022/11/05 02:53:23;;;;;;;;;;;;;;;-144.99;100.00;52474.59;5102429;28;20027;-61
2022/11/05 02:55:54;;;;;;;;;;;;;;;-144.99;100.00;52501.09;5093007;28;19929;-62
2022/11/05 02:58:21;;;;;;;;;;;;;;;-144.99;100.00;52460.31;5100494;28;20063;-61
2022/11/05 03:00:49;;;;;;;;;;;;;;;-144.99;100.00;52466.44;5096892;28;19953;-61
2022/11/05 03:03:19;;;;;;;;;;;;;;;-144.99;100.00;52435.88;5100322;28;19938;-60
2022/11/05 03:05:50;;;;;;;;;;;;;;;-144.99;100.00;52456.25;5089688;28;19924;-68
2022/11/05 03:08:21;;;;;;;;;;;;;;;-144.99;100.00;52425.66;5099106;28;20043;-66
2022/11/05 03:10:53;;;;;;;;;;;;;;;-144.99;100.00;52511.28;5096514;28;20029;-67
2022/11/05 03:13:22;;;;;;;;;;;;;;;-144.99;100.00;52472.56;5103021;28;19948;-67
2022/11/05 03:15:52;;;;;;;;;;;;;;;-144.99;100.00;52464.41;5087517;28;20440;-68
2022/11/05 03:18:25;;;;;;;;;;;;;;;-144.99;100.00;52415.47;5088374;28;20048;-68
2022/11/05 03:20:56;;;;;;;;;;;;;;;-144.99;100.00;52476.63;5085486;28;20108;-65
2022/11/05 03:23:27;;;;;;;;;;;;;;;-144.99;100.00;52464.41;5083576;28;19987;-65
2022/11/05 03:25:58;;;;;;;;;;;;;;;-144.99;100.00;52480.72;5094557;28;19939;-68
2022/11/05 03:28:27;;;;;;;;;;;;;;;-144.99;100.00;52456.25;5102197;28;20325;-67
2022/11/05 03:30:55;;;;;;;;;;;;;;;-144.99;100.00;52468.47;5107195;28;20001;-66
2022/11/05 03:33:25;;;;;;;;;;;;;;;-144.99;100.00;52472.56;5132654;28;19959;-67
2022/11/05 03:35:53;;;;;;;;;;;;;;;-144.99;100.00;52482.75;5133210;28;19940;-68
2022/11/05 03:38:21;;;;;;;;;;;;;;;-144.99;100.00;52448.09;5116928;28;19992;-69
2022/11/05 03:40:49;;;;;;;;;;;;;;;-144.99;100.00;52460.31;5108217;28;20410;-69
2022/11/05 03:43:17;;;;;;;;;;;;;;;-144.99;100.00;52458.28;5109166;28;19938;-69
2022/11/05 03:45:46;;;;;;;;;;;;;;;-144.99;100.00;52448.09;5101461;28;20096;-67
2022/11/05 03:48:14;;;;;;;;;;;;;;;-144.99;100.00;52435.88;5110699;28;20467;-65
2022/11/05 03:50:45;;;;;;;;;;;;;;;-144.99;100.00;52468.47;5102855;28;20019;-65
2022/11/05 03:53:13;;;;;;;;;;;;;;;-144.99;100.00;52476.63;5103827;28;20303;-65
2022/11/05 03:55:44;;;;;;;;;;;;;;;-144.99;100.00;52497.00;5100238;28;19977;-65
2022/11/05 03:58:12;;;;;;;;;;;;;;;-144.99;100.00;52492.94;5110176;28;19977;-65
2022/11/05 04:00:38;;;;;;;;;;;;;;;-144.99;100.00;52517.41;5099356;28;20415;-65
2022/11/05 04:03:05;;;;;;;;;;;;;;;-144.99;100.00;52472.56;5103175;28;20028;-65
2022/11/05 04:05:31;;;;;;;;;;;;;;;-144.99;100.00;52415.47;5106458;28;20085;-66
2022/11/05 04:13:27;;;;;;;;;;;;;;;-144.99;100.00;52484.78;5110719;28;19931;-64
2022/11/05 04:18:39;;;;;;;;;;;;;;;-144.99;100.00;52494.97;5104667;28;20001;-62
2022/11/05 04:24:08;;;;;;;;;;;;;;;-144.99;100.00;52501.09;5081115;28;19980;-63
2022/11/05 04:26:34;;;;;;;;;;;;;;;-144.99;100.00;52480.72;5102779;28;20053;-63
2022/11/05 04:34:20;;;;;;;;;;;;;;;-144.99;100.00;52484.78;5105136;28;19945;-66
2022/11/05 04:36:48;;;;;;;;;;;;;;;-144.99;100.00;52448.09;5097830;28;19971;-68
2022/11/05 04:39:16;;;;;;;;;;;;;;;-144.99;100.00;52466.44;5098234;28;19945;-62
2022/11/05 04:41:43;;;;;;;;;;;;;;;-144.99;100.00;52431.78;5106351;28;20046;-62
2022/11/05 04:44:10;;;;;;;;;;;;;;;-144.99;100.00;52480.72;5105913;28;20215;-62
2022/11/05 04:46:36;;;;;;;;;;;;;;;-144.99;100.00;52452.16;5107608;28;19935;-63
2022/11/05 04:49:02;;;;;;;;;;;;;;;-144.99;100.00;52415.47;5107515;28;19938;-63
2022/11/05 04:51:29;;;;;;;;;;;;;;;-144.99;100.00;52474.59;5103911;28;20054;-68
2022/11/05 04:53:55;;;;;;;;;;;;;;;-144.99;100.00;52448.09;5099377;28;20261;-67
2022/11/05 04:56:24;;;;;;;;;;;;;;;-144.99;100.00;52476.63;5101022;28;20306;-67
2022/11/05 04:58:50;;;;;;;;;;;;;;;-144.99;100.00;52452.16;5105846;28;19965;-67
2022/11/05 05:01:17;;;;;;;;;;;;;;;-144.99;100.00;52513.31;5107761;28;19940;-67
2022/11/05 05:03:46;;;;;;;;;;;;;;;-144.99;100.00;52437.91;5103945;28;19940;-67
2022/11/05 05:06:12;;;;;;;;;;;;;;;-144.99;100.00;52480.72;5107013;28;20404;-68
2022/11/05 05:08:38;;;;;;;;;;;;;;;-144.99;100.00;52482.75;5108506;28;20061;-67
2022/11/05 05:11:06;;;;;;;;;;;;;;;-144.99;100.00;52476.63;5107432;28;20046;-67
2022/11/05 05:13:34;;;;;;;;;;;;;;;-144.99;100.00;52480.72;5103972;28;19960;-67
2022/11/05 05:16:04;;;;;;;;;;;;;;;-144.99;100.00;52488.84;5106301;28;19946;-68
2022/11/05 05:18:30;;;;;;;;;;;;;;;-144.99;100.00;52452.16;5109311;28;20018;-67
2022/11/05 05:23:41;;;;;;;;;;;;;;;-144.99;100.00;52452.16;5097009;28;19947;-68
2022/11/05 05:26:07;;;;;;;;;;;;;;;-144.99;100.00;52519.44;5103243;28;20088;-67
2022/11/05 05:28:35;;;;;;;;;;;;;;;-144.99;100.00;52452.16;5099692;28;19935;-67
2022/11/05 05:31:02;;;;;;;;;;;;;;;-144.99;100.00;52484.78;5107508;28;19954;-67
2022/11/05 05:33:28;;;;;;;;;;;;;;;-144.99;100.00;52460.31;5103271;28;20052;-62
2022/11/05 05:35:56;;;;;;;;;;;;;;;-144.99;100.00;52509.25;5105944;28;20217;-62
2022/11/05 05:38:23;;;;;;;;;;;;;;;-144.99;100.00;52478.66;5106165;28;19936;-61
2022/11/05 05:40:49;;;;;;;;;;;;;;;-144.99;100.00;52452.16;5106687;28;20377;-61
2022/11/05 05:43:16;;;;;;;;;;;;;;;-144.99;100.00;52460.31;5106541;28;20000;-62
2022/11/05 05:45:44;;;;;;;;;;;;;;;-144.99;100.00;52476.63;5104169;28;19951;-61
2022/11/05 05:48:10;;;;;;;;;;;;;;;-144.99;100.00;52435.88;5105715;28;19975;-62
2022/11/05 05:50:37;;;;;;;;;;;;;;;-144.99;100.00;52484.78;5102811;28;19950;-62
2022/11/05 05:53:03;;;;;;;;;;;;;;;-144.99;100.00;52476.63;5106151;28;19958;-61
2022/11/05 05:55:29;;;;;;;;;;;;;;;-144.99;100.00;52492.94;5099231;28;20216;-68
2022/11/05 05:57:56;;;;;;;;;;;;;;;-144.99;100.00;52497.00;5106861;28;20031;-70
2022/11/05 06:00:22;;;;;;;;;;;;;;;-144.99;100.00;52527.59;5095133;28;19959;-70
2022/11/05 06:02:50;;;;;;;;;;;;;;;-144.99;100.00;52505.16;5104957;28;20003;-70
2022/11/05 06:05:16;;;;;;;;;;;;;;;-144.99;100.00;52488.84;5101874;28;20026;-70
2022/11/05 06:07:43;;;;;;;;;;;;;;;-144.99;100.00;52480.72;5105964;28;19938;-63
2022/11/05 06:10:10;;;;;;;;;;;;;;;-144.99;100.00;52462.34;5101638;28;20078;-65
2022/11/05 06:12:36;;;;;;;;;;;;;;;-144.99;100.00;52492.94;5106549;28;19967;-65
2022/11/05 06:15:03;;;;;;;;;;;;;;;-144.99;100.00;52484.78;5106731;28;19946;-64
2022/11/05 06:17:29;;;;;;;;;;;;;;;-144.99;100.00;52439.94;5107433;28;19952;-62
2022/11/05 06:19:57;;;;;;;;;;;;;;;-144.99;100.00;52497.00;5106864;28;20399;-61
2022/11/05 06:22:23;;;;;;;;;;;;;;;-144.99;100.00;52464.41;5105394;28;20030;-61
2022/11/05 06:24:50;;;;;;;;;;;;;;;-144.99;100.00;52497.00;5102238;28;20053;-64
2022/11/05 06:27:16;;;;;;;;;;;;;;;-144.99;100.00;52492.94;5104966;28;20017;-65
2022/11/05 06:29:43;;;;;;;;;;;;;;;-144.99;100.00;52476.63;5103561;28;19976;-70
2022/11/05 06:32:09;;;;;;;;;;;;;;;-144.99;100.00;52480.72;5107850;28;20321;-70
2022/11/05 06:34:36;;;;;;;;;;;;;;;-144.99;100.00;52505.16;5105650;28;19955;-69
2022/11/05 06:37:04;;;;;;;;;;;;;;;-144.99;100.00;52472.56;5097242;28;19942;-70
2022/11/05 06:39:30;;;;;;;;;;;;;;;-144.99;100.00;52464.41;5098318;28;19956;-70
2022/11/05 06:41:57;;;;;;;;;;;;;;;-144.99;100.00;52505.16;5106246;28;19963;-69
2022/11/05 06:44:23;;;;;;;;;;;;;;;-144.99;100.00;52464.41;5096938;28;19942;-69
2022/11/05 06:46:50;;;;;;;;;;;;;;;-144.99;100.00;52448.09;5099731;28;19949;-69
2022/11/05 06:49:16;;;;;;;;;;;;;;;-144.99;100.00;52468.47;5098579;28;19937;-68
2022/11/05 06:51:42;;;;;;;;;;;;;;;-144.99;100.00;52480.72;5096593;28;20148;-68
2022/11/05 06:54:10;;;;;;;;;;;;;;;-144.99;100.00;52460.31;5099001;28;19952;-68
2022/11/05 06:56:37;;;;;;;;;;;;;;;-144.99;100.00;52480.72;5100233;28;19928;-69
2022/11/05 06:59:03;;;;;;;;;;;;;;;-144.99;100.00;52460.31;5101367;28;20031;-69
2022/11/05 07:01:30;;;;;;;;;;;;;;;-144.99;100.00;52423.63;5095334;28;19962;-70
2022/11/05 07:03:56;;;;;;;;;;;;;;;-144.99;100.00;52444.03;5099285;28;19981;-69
2022/11/05 07:06:23;;;;;;;;;;;;;;;-144.99;100.00;52460.31;5101987;28;19949;-69
2022/11/05 07:08:49;;;;;;;;;;;;;;;-144.99;100.00;52456.25;5100001;28;19924;-69
2022/11/05 07:11:17;;;;;;;;;;;;;;;-144.99;100.00;52448.09;5098502;28;20151;-66
2022/11/05 07:13:43;;;;;;;;;;;;;;;-144.99;100.00;52472.56;5101004;28;19970;-66
2022/11/05 07:16:10;;;;;;;;;;;;;;;-144.99;100.00;52431.78;5098092;28;20079;-72
2022/11/05 07:18:36;;;;;;;;;;;;;;;-144.99;100.00;52444.03;5105720;28;19934;-74
2022/11/05 07:21:03;;;;;;;;;;;;;;;-144.99;100.00;52452.16;5102256;27;20518;-74
2022/11/05 07:23:29;;;;;;;;;;;;;;;-144.99;100.00;52454.22;5102710;28;20424;-74
2022/11/05 07:25:56;;;;;;;;;;;;;;;-144.99;100.00;52425.66;5106165;28;20022;-73
2022/11/05 07:28:23;;;;;;;;;;;;;;;-144.99;100.00;52464.41;5108574;28;20033;-76
2022/11/05 07:30:50;;;;;;;;;;;;;;;-144.99;100.00;52415.47;5118221;28;20003;-74
2022/11/05 07:33:16;;;;;;;;;;;;;;;-144.99;100.00;52456.25;5111119;28;20462;-74
2022/11/05 07:35:43;;;;;;;;;;;;;;;-144.99;100.00;52452.16;5100696;28;20050;-75
2022/11/05 07:38:10;;;;;;;;;;;;;;;-144.99;100.00;52427.72;5105635;27;19938;-74
2022/11/05 07:40:37;;;;;;;;;;;;;;;-144.99;100.00;52415.47;5106782;28;20413;-76
2022/11/05 07:43:03;;;;;;;;;;;;;;;-144.99;100.00;52439.94;5102872;28;20389;-75
2022/11/05 07:45:31;;;;;;;;;;;;;;;-144.99;100.00;52468.47;5099220;28;19948;-75
2022/11/05 07:47:59;;;;;;;;;;;;;;;-144.99;100.00;52399.19;5104150;28;20032;-75
2022/11/05 07:50:26;;;;;;;;;;;;;;;-144.99;100.00;52439.94;5103604;28;19964;-75
2022/11/05 07:52:53;;;;;;;;;;;;;;;-144.99;99.81;52441.97;5101024;28;20093;-77
2022/11/05 07:55:20;;;;;;;;;;;;;;;-144.99;98.81;52415.47;5110570;28;19931;-75
2022/11/05 07:57:47;;;;;;;;;;;;;;;-144.99;97.43;52415.47;5108020;28;20465;-75
2022/11/05 08:00:14;;;;;;;;;;;;;;;-144.99;96.47;52407.31;5105479;28;20102;-76
2022/11/05 08:02:42;;;;;;;;;;;;;;;-144.99;94.67;52415.47;5105156;28;19928;-77
2022/11/05 08:05:09;;;;;;;;;;;;;;;-144.99;93.36;52421.59;5098140;28;20574;-75
2022/11/05 08:07:36;;;;;;;;;;;;;;;-144.99;93.63;52431.78;5104276;28;19969;-76
2022/11/05 08:10:03;;;;;;;;;;;;;;;-144.99;92.80;52433.81;5109909;28;20044;-75
2022/11/05 08:12:30;;;;;;;;;;;;;;;-144.99;92.05;52395.09;5110188;28;19964;-76
2022/11/05 08:14:57;;;;;;;;;;;;;;;-144.99;90.35;52407.31;5109906;28;20462;-76
2022/11/05 08:17:23;;;;;;;;;;;;;;;-144.99;88.05;52399.19;5109158;28;20436;-79
2022/11/05 08:19:51;;;;;;;;;;;;;;;-144.99;85.38;52415.47;5106644;28;20049;-77
2022/11/05 08:22:17;;;;;;;;;;;;;;;-144.99;84.66;52403.25;5104277;28;19938;-77
2022/11/05 08:24:44;;;;;;;;;;;;;;;-144.99;83.97;52403.25;5103380;28;20295;-77
2022/11/05 08:27:10;;;;;;;;;;;;;;;-144.99;82.69;52413.44;5099067;28;20528;-75
2022/11/05 08:29:37;;;;;;;;;;;;;;;-144.99;82.17;52366.56;5099100;28;19988;-77
2022/11/05 08:32:03;;;;;;;;;;;;;;;-144.99;80.75;52360.44;5110893;28;20036;-70
2022/11/05 08:34:30;;;;;;;;;;;;;;;-144.99;79.79;52386.94;5111800;28;20010;-70
2022/11/05 08:36:59;;;;;;;;;;;;;;;-144.99;79.23;52386.94;5111076;28;20001;-69
2022/11/05 08:39:26;;;;;;;;;;;;;;;-144.99;79.48;52403.25;5111097;28;20042;-70
2022/11/05 08:41:52;;;;;;;;;;;;;;;-144.99;78.05;52370.63;5110773;28;19936;-70
2022/11/05 08:44:19;;;;;;;;;;;;;;;-144.99;75.58;52374.72;5111542;28;19964;-70
2022/11/05 08:46:45;;;;;;;;;;;;;;;-144.99;73.49;52356.38;5111803;28;20025;-71
2022/11/05 08:49:12;;;;;;;;;;;;;;;-144.99;72.68;52370.63;5112306;28;20034;-70
2022/11/05 08:51:38;;;;;;;;;;;;;;;-144.99;72.42;52407.31;5112429;28;20040;-70
2022/11/05 08:54:06;;;;;;;;;;;;;;;-144.99;70.92;52386.94;5108990;28;19962;-72
2022/11/05 08:56:33;;;;;;;;;;;;;;;-144.99;69.40;52358.41;5114161;28;20321;-70
2022/11/05 08:58:59;;;;;;;;;;;;;;;-144.99;69.23;52358.41;5112890;28;20388;-70
2022/11/05 09:01:26;;;;;;;;;;;;;;;-144.99;66.62;52391.03;5113604;28;19962;-69
2022/11/05 09:03:53;;;;;;;;;;;;;;;-144.99;65.47;52325.81;5106535;28;20041;-71
2022/11/05 09:06:19;;;;;;;;;;;;;;;-144.99;65.37;52340.06;5113256;28;20007;-70
2022/11/05 09:08:46;;;;;;;;;;;;;;;-144.99;65.46;52342.09;5113433;28;19954;-71
2022/11/05 09:11:14;;;;;;;;;;;;;;;-144.99;65.16;52348.22;5112701;28;19965;-70
2022/11/05 09:13:40;;;;;;;;;;;;;;;-144.99;62.84;52362.50;5112545;28;20079;-70
2022/11/05 09:16:12;;;;;;;;;;;;;;;-144.99;61.53;52338.03;5113512;28;20599;-70
2022/11/05 09:18:38;;;;;;;;;;;;;;;-144.99;61.38;52352.28;5112907;28;19978;-71
2022/11/05 09:21:05;;;;;;;;;;;;;;;-144.99;61.64;52350.25;5113613;28;19966;-69
2022/11/05 09:23:31;;;;;;;;;;;;;;;-144.99;60.68;52317.66;5113823;28;19975;-70
2022/11/05 09:25:58;;;;;;;;;;;;;;;-144.99;59.26;52321.72;5110522;28;19939;-71
2022/11/05 09:28:27;;;;;;;;;;;;;;;-144.99;58.71;52313.56;5105509;28;19971;-69
2022/11/05 09:30:53;;;;;;;;;;;;;;;-144.99;56.52;52280.97;5111205;28;19967;-71
2022/11/05 09:33:21;;;;;;;;;;;;;;;-144.99;55.95;52307.47;5113794;28;20064;-71
2022/11/05 09:35:47;;;;;;;;;;;;;;;-144.99;55.67;52325.81;5115532;28;19994;-70
2022/11/05 09:38:14;;;;;;;;;;;;;;;-144.99;55.01;52309.50;5116268;28;20032;-70
2022/11/05 09:40:44;;;;;;;;;;;;;;;-144.99;52.93;52305.41;5115367;28;20419;-70
2022/11/05 09:43:16;;;;;;;;;;;;;;;-144.99;52.12;52301.34;5114866;28;19971;-70
2022/11/05 09:45:46;;;;;;;;;;;;;;;-144.99;50.14;52252.44;5118377;28;20037;-70
2022/11/05 09:48:15;;;;;;;;;;;;;;;-144.99;49.63;52285.03;5106293;28;20129;-70
2022/11/05 09:50:43;;;;;;;;;;;;;;;-144.99;47.99;52248.34;5116417;28;20447;-71
2022/11/05 09:53:12;;;;;;;;;;;;;;;-144.99;48.61;52240.19;5113018;28;20051;-71
2022/11/05 09:55:41;;;;;;;;;;;;;;;-144.99;48.80;52240.19;5107206;28;20041;-71
2022/11/05 09:58:14;;;;;;;;;;;;;;;-144.99;47.32;52207.59;5108297;28;19977;-71
2022/11/05 10:00:41;;;;;;;;;;;;;;;-144.99;46.97;52195.34;5113345;28;19960;-71
2022/11/05 10:03:11;;;;;;;;;;;;;;;-144.99;46.29;52225.94;5113023;28;20036;-71
2022/11/05 10:05:39;;;;;;;;;;;;;;;-144.99;45.13;52215.75;5115557;28;20018;-71
2022/11/05 10:08:07;;;;;;;;;;;;;;;-144.99;44.72;52179.06;5116529;28;20018;-72
2022/11/05 10:10:36;;;;;;;;;;;;;;;-144.99;44.59;52187.19;5122095;28;19969;-72
2022/11/05 10:13:06;;;;;;;;;;;;;;;-144.99;44.00;52142.38;5129835;28;19974;-72
2022/11/05 10:15:35;;;;;;;;;;;;;;;-144.99;44.46;52179.06;5116232;28;19992;-72
2022/11/05 10:18:04;;;;;;;;;;;;;;;-144.99;43.33;52121.97;5114697;28;20005;-71
2022/11/05 10:20:33;;;;;;;;;;;;;;;-144.99;42.04;52156.63;5115082;28;19964;-72
2022/11/05 10:23:05;;;;;;;;;;;;;;;-144.99;42.13;52105.69;5112481;28;20445;-71
2022/11/05 10:25:35;;;;;;;;;;;;;;;-144.99;41.49;52089.38;5113703;28;19975;-72
2022/11/05 10:28:03;;;;;;;;;;;;;;;-144.99;40.52;52101.59;5113709;28;20455;-72
2022/11/05 10:30:30;;;;;;;;;;;;;;;-144.99;39.82;52085.31;5115417;28;19989;-72
2022/11/05 10:32:58;;;;;;;;;;;;;;;-144.99;39.37;52077.16;5115279;28;20375;-70
2022/11/05 10:38:04;;;;;;;;;;;;;;;-144.99;37.88;52064.91;5062775;28;20470;-73
2022/11/05 10:40:36;;;;;;;;;;;;;;;-144.99;37.63;52077.16;5069095;28;20062;-73
2022/11/05 10:43:05;;;;;;;;;;;;;;;-144.99;37.89;52052.69;5055576;28;19947;-73
2022/11/05 10:45:35;;;;;;;;;;;;;;;-144.99;37.46;52064.91;5055625;28;19970;-73
2022/11/05 10:48:16;;;;;;;;;;;;;;;-144.99;37.99;52087.34;5053780;28;19944;-74
2022/11/05 10:50:43;;;;;;;;;;;;;;;-144.99;38.25;52105.69;5048504;28;20054;-73
2022/11/05 10:53:13;;;;;;;;;;;;;;;-144.99;37.89;52071.03;5066358;28;20012;-73
2022/11/05 10:55:42;;;;;;;;;;;;;;;-144.99;37.47;52060.84;5056326;28;19951;-73
2022/11/05 10:58:10;;;;;;;;;;;;;;;-144.99;38.22;52085.31;5065089;28;19943;-73
2022/11/05 11:00:37;;;;;;;;;;;;;;;-144.99;39.00;52223.88;5051711;28;19959;-73
2022/11/05 11:03:04;;;;;;;;;;;;;;;-144.99;39.55;52121.97;5052000;28;19975;-74
2022/11/05 11:05:32;;;;;;;;;;;;;;;-144.99;39.03;52103.66;5064222;28;20022;-72
2022/11/05 11:08:01;;;;;;;;;;;;;;;-144.99;39.90;52166.81;5058322;28;19958;-71
2022/11/05 11:10:30;;;;;;;;;;;;;;;-144.99;39.74;52146.44;5072415;28;19963;-72
2022/11/05 11:12:57;;;;;;;;;;;;;;;-144.99;39.09;52105.69;5071999;28;20166;-73
2022/11/05 11:15:26;;;;;;;;;;;;;;;-144.99;38.32;52077.16;5071808;28;19967;-71
2022/11/05 11:17:52;;;;;;;;;;;;;;;-144.99;38.48;52117.91;5072134;28;20415;-73
2022/11/05 11:20:21;;;;;;;;;;;;;;;-144.99;38.68;52158.66;5071907;28;19963;-73
2022/11/05 11:23:05;;;;;;;;;;;;;;;-144.99;38.64;52117.91;5071446;28;20012;-73
2022/11/05 11:25:37;;;;;;;;;;;;;;;-144.99;38.75;52142.38;5066962;28;19945;-71
2022/11/05 11:28:05;;;;;;;;;;;;;;;-144.99;39.47;52130.13;5067463;28;19940;-72
2022/11/05 11:30:32;;;;;;;;;;;;;;;-144.99;38.62;52083.25;5066479;28;20002;-73
2022/11/05 11:33:03;;;;;;;;;;;;;;;-144.99;38.02;52138.28;5064350;28;19952;-73
2022/11/05 11:35:30;;;;;;;;;;;;;;;-144.99;38.64;52134.22;5076919;28;20047;-73
2022/11/05 11:37:59;;;;;;;;;;;;;;;-144.99;38.37;52105.69;5073987;28;20467;-73
2022/11/05 11:40:30;;;;;;;;;;;;;;;-144.99;38.14;52113.84;5071535;28;20334;-72
2022/11/05 11:42:59;;;;;;;;;;;;;;;-144.99;37.69;52097.53;5072135;28;19964;-72
2022/11/05 11:45:27;;;;;;;;;;;;;;;-144.99;36.70;52050.66;5058432;28;19950;-73
2022/11/05 11:47:55;;;;;;;;;;;;;;;-144.99;37.71;52103.66;5057860;28;19972;-74
2022/11/05 11:50:45;;;;;;;;;;;;;;;-144.99;37.32;52085.31;5058191;28;19962;-74
2022/11/05 11:53:25;;;;;;;;;;;;;;;-144.99;37.23;52085.31;5054998;28;20014;-72
2022/11/05 11:56:15;;;;;;;;;;;;;;;-144.99;37.63;52121.97;5070149;28;20391;-73
2022/11/05 11:58:44;;;;;;;;;;;;;;;-144.99;38.64;52121.97;5061102;28;19950;-72
2022/11/05 12:01:20;;;;;;;;;;;;;;;-144.99;37.83;52105.69;5051021;28;20042;-71
2022/11/05 12:03:49;;;;;;;;;;;;;;;-144.99;37.71;52097.53;5061675;28;19948;-72
2022/11/05 12:06:24;;;;;;;;;;;;;;;-144.99;37.29;52105.69;5070758;28;20379;-73
2022/11/05 12:08:54;;;;;;;;;;;;;;;-144.99;37.18;52121.97;5070122;28;20035;-73
2022/11/05 12:11:23;;;;;;;;;;;;;;;-144.99;37.16;52073.06;5058544;28;20010;-72
2022/11/05 12:14:00;;;;;;;;;;;;;;;-144.99;38.88;52162.75;5071526;28;20020;-71
2022/11/05 12:16:37;;;;;;;;;;;;;;;-144.99;38.55;52105.69;5072408;28;20030;-73
2022/11/05 12:19:09;;;;;;;;;;;;;;;-144.99;37.63;52089.38;5059408;28;20077;-74
2022/11/05 12:21:42;;;;;;;;;;;;;;;-144.99;37.21;52101.59;5060429;28;20335;-75
2022/11/05 12:24:19;;;;;;;;;;;;;;;-144.99;37.54;52097.53;5067204;28;19958;-76
2022/11/05 12:26:52;;;;;;;;;;;;;;;-144.99;36.85;52073.06;5064680;28;19976;-76
2022/11/05 12:29:34;;;;;;;;;;;;;;;-144.99;36.06;52103.66;5068068;28;20003;-75
2022/11/05 12:32:06;;;;;;;;;;;;;;;-144.99;35.95;52093.44;5079939;28;19976;-76
2022/11/05 12:34:42;;;;;;;;;;;;;;;-144.99;37.06;52126.06;5093750;28;19963;-75
2022/11/05 12:37:14;;;;;;;;;;;;;;;-144.99;37.08;52050.66;5075394;28;19952;-74
2022/11/05 12:39:43;;;;;;;;;;;;;;;-144.99;36.10;52081.22;5053016;28;20010;-74
2022/11/05 12:42:18;;;;;;;;;;;;;;;-144.99;35.84;52064.91;5053847;28;20012;-74
2022/11/05 12:44:51;;;;;;;;;;;;;;;-144.99;35.48;52069.00;5069908;28;19948;-75
2022/11/05 12:47:25;;;;;;;;;;;;;;;-144.99;34.98;52069.00;5074217;28;19991;-74
2022/11/05 12:49:59;;;;;;;;;;;;;;;-144.99;35.40;52087.34;5072826;28;19943;-76
2022/11/05 12:52:42;;;;;;;;;;;;;;;-144.99;35.51;52085.31;5072492;28;20041;-74
2022/11/05 12:55:11;;;;;;;;;;;;;;;-144.99;36.12;52089.38;5064635;28;19984;-74
2022/11/05 12:57:40;;;;;;;;;;;;;;;-144.99;36.67;52124.03;5065735;28;19968;-74
2022/11/05 13:00:14;;;;;;;;;;;;;;;-144.99;36.76;52075.09;5074431;28;20043;-75
2022/11/05 13:02:47;;;;;;;;;;;;;;;-144.99;37.31;52117.91;5072703;28;19976;-75
2022/11/05 13:05:16;;;;;;;;;;;;;;;-144.99;37.82;52113.84;5061511;28;19978;-73
2022/11/05 13:07:46;;;;;;;;;;;;;;;-144.99;37.87;52158.66;5057018;28;20052;-75
2022/11/05 13:10:18;;;;;;;;;;;;;;;-144.99;37.42;52101.59;5075151;28;19959;-76
2022/11/05 13:12:49;;;;;;;;;;;;;;;-144.99;36.80;52097.53;5074991;28;19944;-76
2022/11/05 13:15:21;;;;;;;;;;;;;;;-144.99;36.88;52117.91;5072720;28;19959;-76